Terminal Aerodrome Forecast
Issued by NWS

Home | Current Version | Previous Version | Text Only | Print | Product List | Glossary On
Versions: 1 2 3 4 5 6 7 8 9 10 11 12 13 14 15 16 17 18 19 20 21 22 23 24 25
000
FTUS43 KIND 031700
TAFBMG
TAF
KBMG 031727Z 0318/0418 04005KT P6SM SCT015 BKN025
     FM032100 04006KT P6SM BKN035 BKN060
     FM040300 04003KT P6SM SCT040 BKN060
     FM040800 02002KT 3SM BR SCT040 BKN250
     FM041400 36004KT P6SM SCT040 BKN250=

USA.gov is the U.S. government's official web portal to all federal, state and local government web resources and services.